createdAt,value
2023-05-01T00:00:23.840Z,101728.88
2023-05-01T00:02:53.116Z,101730.66
2023-05-01T00:05:19.640Z,101728.41
2023-05-01T00:07:46.128Z,101722.91
2023-05-01T00:10:12.536Z,101723.38
2023-05-01T00:12:38.980Z,101725.53
2023-05-01T00:15:06.840Z,101721.28
2023-05-01T00:17:33.343Z,101725.97
2023-05-01T00:19:59.958Z,101724.06
2023-05-01T00:22:26.751Z,101726.66
2023-05-01T00:24:53.195Z,101722.22
2023-05-01T00:27:19.596Z,101719.34
2023-05-01T00:29:46.436Z,101718.91
2023-05-01T00:32:12.947Z,101716.03
2023-05-01T00:34:39.772Z,101713.59
2023-05-01T00:37:06.199Z,101720.75
2023-05-01T00:39:32.630Z,101717.81
2023-05-01T00:41:59.073Z,101706.09
2023-05-01T00:44:25.803Z,101710.56
2023-05-01T00:46:52.223Z,101695.38
2023-05-01T00:49:18.737Z,101701.16
2023-05-01T00:51:49.450Z,101701.44
2023-05-01T00:54:15.862Z,101691.78
2023-05-01T00:56:42.809Z,101688.09
2023-05-01T00:59:09.247Z,101686.16
2023-05-01T01:01:35.843Z,101684.22
2023-05-01T01:04:02.362Z,101681.81
2023-05-01T01:06:37.784Z,101689.97
2023-05-01T01:09:23.612Z,101690.41
2023-05-01T01:12:07.531Z,101688.03
2023-05-01T01:14:47.557Z,101687.72
2023-05-01T01:17:21.161Z,101685.97
2023-05-01T01:20:04.033Z,101689.16
2023-05-01T01:22:31.920Z,101686.16
2023-05-01T01:25:40.805Z,101680.44
2023-05-01T01:28:34.603Z,101673.44
2023-05-01T01:31:09.424Z,101675.19
2023-05-01T01:33:44.825Z,101672.78
2023-05-01T01:36:18.891Z,101667.97
2023-05-01T01:39:03.664Z,101669.97
2023-05-01T01:41:38.610Z,101661.81
2023-05-01T01:44:29.855Z,101666.09
2023-05-01T01:46:57.350Z,101664.63
2023-05-01T01:49:27.641Z,101664.88
2023-05-01T01:51:56.595Z,101662.09
2023-05-01T01:54:33.445Z,101659.78
2023-05-01T01:57:02.543Z,101652.97
2023-05-01T01:59:32.954Z,101652.13
2023-05-01T02:02:02.695Z,101652.41
2023-05-01T02:04:31.492Z,101657.53
2023-05-01T02:06:59.108Z,101648.34
2023-05-01T02:09:28.061Z,101642.16
2023-05-01T02:11:57.490Z,101644.13
2023-05-01T02:14:26.901Z,101640.66
2023-05-01T02:16:54.884Z,101636.16
2023-05-01T02:19:21.525Z,101632.41
2023-05-01T02:21:49.512Z,101631.56
2023-05-01T02:24:18.255Z,101629.22
2023-05-01T02:26:49.576Z,101629.84
2023-05-01T02:29:16.078Z,101622.84
2023-05-01T02:31:42.521Z,101620.69
2023-05-01T02:34:09.308Z,101610.47
2023-05-01T02:36:35.731Z,101613.84
2023-05-01T02:39:02.339Z,101610.28
2023-05-01T02:41:29.883Z,101606.91
2023-05-01T02:44:01.782Z,101602.19
2023-05-01T02:46:31.014Z,101604.13
2023-05-01T02:49:01.645Z,101594.94
2023-05-01T02:51:29.112Z,101592.16
2023-05-01T02:53:56.300Z,101595.75
2023-05-01T02:56:25.951Z,101590.66
2023-05-01T02:58:53.656Z,101584.50
2023-05-01T03:01:20.778Z,101579.59
2023-05-01T03:03:47.825Z,101581.28
2023-05-01T03:06:14.378Z,101583.75
2023-05-01T03:08:40.987Z,101569.06
2023-05-01T03:11:07.938Z,101577.91
2023-05-01T03:13:35.183Z,101568.72
2023-05-01T03:16:02.151Z,101571.03
2023-05-01T03:18:28.595Z,101563.63
2023-05-01T03:20:58.771Z,101572.56
2023-05-01T03:23:27.963Z,101565.09
2023-05-01T03:25:54.783Z,101568.19
2023-05-01T03:28:23.497Z,101571.66
2023-05-01T03:30:52.656Z,101562.72
2023-05-01T03:33:19.344Z,101563.78
2023-05-01T03:35:46.390Z,101560.75
2023-05-01T03:38:13.454Z,101566.84
2023-05-01T03:40:59.991Z,101568.03
2023-05-01T03:43:52.687Z,101559.91
2023-05-01T03:46:31.486Z,101557.59
2023-05-01T03:48:58.031Z,101571.91
2023-05-01T03:51:25.687Z,101564.31
2023-05-01T03:53:56.624Z,101567.09
2023-05-01T03:56:25.687Z,101569.84
2023-05-01T03:58:54.848Z,101565.94
2023-05-01T04:01:21.311Z,101558.50
2023-05-01T04:03:48.325Z,101566.19
2023-05-01T04:06:16.434Z,101556.28
2023-05-01T04:08:43.159Z,101559.09
2023-05-01T04:11:09.578Z,101553.97
2023-05-01T04:13:36.073Z,101556.28
2023-05-01T04:16:02.899Z,101548.38
2023-05-01T04:18:29.367Z,101549.47
2023-05-01T04:20:59.101Z,101543.22
2023-05-01T04:23:25.691Z,101545.41
2023-05-01T04:25:55.949Z,101544.50
2023-05-01T04:28:22.447Z,101547.69
2023-05-01T04:30:48.869Z,101534.84
2023-05-01T04:33:15.713Z,101533.91
2023-05-01T04:35:42.191Z,101536.94
2023-05-01T04:38:10.395Z,101537.56
2023-05-01T04:40:37.561Z,101541.03
2023-05-01T04:43:04.285Z,101535.91
2023-05-01T04:45:32.676Z,101534.78
2023-05-01T04:47:59.864Z,101532.06
2023-05-01T04:50:26.754Z,101531.41
2023-05-01T04:52:53.251Z,101524.00
2023-05-01T04:55:19.687Z,101530.81
2023-05-01T04:58:10.433Z,101528.19
2023-05-01T05:00:36.954Z,101524.19
2023-05-01T05:03:06.727Z,101523.44
2023-05-01T05:05:33.294Z,101520.38
2023-05-01T05:08:00.213Z,101522.78
2023-05-01T05:10:49.053Z,101518.34
2023-05-01T05:13:35.769Z,101519.69
2023-05-01T05:16:09.076Z,101524.63
2023-05-01T05:18:35.530Z,101514.22
2023-05-01T05:21:06.403Z,101499.94
2023-05-01T05:23:32.899Z,101509.22
2023-05-01T05:26:01.621Z,101500.81
2023-05-01T05:28:28.480Z,101502.50
2023-05-01T05:30:55.919Z,101499.25
2023-05-01T05:33:24.987Z,101498.53
2023-05-01T05:35:52.763Z,101495.19
2023-05-01T05:38:22.466Z,101490.50
2023-05-01T05:40:54.149Z,101487.47
2023-05-01T05:43:21.225Z,101478.66
2023-05-01T05:45:47.688Z,101472.47
2023-05-01T05:48:14.316Z,101473.38
2023-05-01T05:50:41.241Z,101477.94
2023-05-01T05:53:09.852Z,101471.25
2023-05-01T05:55:37.001Z,101476.41
2023-05-01T05:58:05.703Z,101471.97
2023-05-01T06:00:32.329Z,101477.91
2023-05-01T06:03:03.905Z,101470.88
2023-05-01T06:05:31.275Z,101477.66
2023-05-01T06:07:57.762Z,101473.72
2023-05-01T06:10:24.258Z,101474.50
2023-05-01T06:12:54.912Z,101472.25
2023-05-01T06:15:38.228Z,101466.34
2023-05-01T06:18:05.565Z,101471.94
2023-05-01T06:20:32.248Z,101467.69
2023-05-01T06:22:58.734Z,101471.63
2023-05-01T06:25:37.988Z,101466.84
2023-05-01T06:28:04.550Z,101464.97
2023-05-01T06:30:32.682Z,101460.09
2023-05-01T06:32:59.201Z,101466.56
2023-05-01T06:35:25.729Z,101455.66
2023-05-01T06:37:52.148Z,101458.88
2023-05-01T06:40:19.247Z,101463.34
2023-05-01T06:42:45.745Z,101463.34
2023-05-01T06:45:12.175Z,101466.00
2023-05-01T06:47:38.646Z,101459.56
2023-05-01T06:50:06.023Z,101463.03
2023-05-01T06:52:33.227Z,101458.19
2023-05-01T06:54:59.716Z,101459.69
2023-05-01T06:57:26.160Z,101452.16
2023-05-01T06:59:52.586Z,101452.16
2023-05-01T07:02:19.071Z,101452.59
2023-05-01T07:04:45.584Z,101456.19
2023-05-01T07:07:12.039Z,101456.31
2023-05-01T07:09:38.753Z,101456.44
2023-05-01T07:12:06.743Z,101450.06
2023-05-01T07:14:34.812Z,101444.25
2023-05-01T07:17:02.256Z,101442.38
2023-05-01T07:19:28.867Z,101443.44
2023-05-01T07:21:55.280Z,101433.84
2023-05-01T07:24:21.690Z,101435.53
2023-05-01T07:26:48.090Z,101428.19
2023-05-01T07:29:16.425Z,101438.81
2023-05-01T07:31:43.372Z,101428.59
2023-05-01T07:34:10.187Z,101428.44
2023-05-01T07:36:36.589Z,101436.66
2023-05-01T07:39:03.841Z,101436.56
2023-05-01T07:41:31.206Z,101422.88
2023-05-01T07:44:00.862Z,101419.16
2023-05-01T07:46:27.374Z,101419.06
2023-05-01T07:48:53.897Z,101420.03
2023-05-01T07:51:20.334Z,101411.44
2023-05-01T07:53:47.385Z,101409.47
2023-05-01T07:56:13.786Z,101411.66
2023-05-01T07:58:42.487Z,101397.25
2023-05-01T08:01:09.229Z,101407.16
2023-05-01T08:03:35.981Z,101400.59
2023-05-01T08:06:02.507Z,101396.59
2023-05-01T08:08:28.966Z,101399.88
2023-05-01T08:10:55.394Z,101389.94
2023-05-01T08:13:21.940Z,101387.41
2023-05-01T08:15:49.548Z,101388.91
2023-05-01T08:18:20.348Z,101381.78
2023-05-01T08:20:48.184Z,101372.28
2023-05-01T08:23:15.852Z,101375.22
2023-05-01T08:25:42.345Z,101366.94
2023-05-01T08:28:09.416Z,101382.63
2023-05-01T08:30:35.843Z,101372.78
2023-05-01T08:33:02.326Z,101374.88
2023-05-01T08:35:29.373Z,101373.31
2023-05-01T08:37:55.843Z,101371.47
2023-05-01T08:40:23.977Z,101368.72
2023-05-01T08:42:51.227Z,101362.84
2023-05-01T08:45:19.838Z,101354.19
2023-05-01T08:47:47.971Z,101363.69
2023-05-01T08:50:16.390Z,101361.91
2023-05-01T08:52:44.102Z,101358.31
2023-05-01T08:55:15.119Z,101348.41
2023-05-01T08:57:46.536Z,101345.97
2023-05-01T09:00:20.919Z,101347.50
2023-05-01T09:02:49.359Z,101343.19
2023-05-01T09:05:17.256Z,101342.16
2023-05-01T09:07:46.004Z,101330.16
2023-05-01T09:10:14.085Z,101323.91
2023-05-01T09:12:41.981Z,101317.13
2023-05-01T09:15:09.634Z,101321.72
2023-05-01T09:17:36.896Z,101305.88
2023-05-01T09:20:07.711Z,101315.16
2023-05-01T09:22:34.860Z,101305.50
2023-05-01T09:25:02.092Z,101306.41
2023-05-01T09:27:29.700Z,101305.06
2023-05-01T09:29:56.425Z,101295.00
2023-05-01T09:32:25.781Z,101295.09
2023-05-01T09:34:52.890Z,101287.59
2023-05-01T09:37:30.850Z,101293.59
2023-05-01T09:40:10.597Z,101288.94
2023-05-01T09:42:49.500Z,101276.75
2023-05-01T09:45:16.168Z,101270.03
2023-05-01T09:47:46.640Z,101275.03
2023-05-01T09:50:34.351Z,101267.00
2023-05-01T09:53:06.404Z,101262.16
2023-05-01T09:55:33.734Z,101255.16
2023-05-01T09:58:00.464Z,101251.50
2023-05-01T10:00:27.139Z,101244.81
2023-05-01T10:02:54.009Z,101249.88
2023-05-01T10:05:20.544Z,101240.81
2023-05-01T10:07:58.987Z,101246.66
2023-05-01T10:10:25.728Z,101237.34
2023-05-01T10:12:52.288Z,101241.69
2023-05-01T10:15:25.272Z,101241.00
2023-05-01T10:17:53.651Z,101234.66
2023-05-01T10:20:20.332Z,101232.31
2023-05-01T10:22:47.195Z,101229.13
2023-05-01T10:25:14.047Z,101230.59
2023-05-01T10:27:41.165Z,101228.66
2023-05-01T10:30:09.431Z,101225.94
2023-05-01T10:32:37.788Z,101211.09
2023-05-01T10:35:11.269Z,101214.44
2023-05-01T10:37:48.592Z,101200.72
2023-05-01T10:40:40.217Z,101203.22
2023-05-01T10:43:13.432Z,101206.13
2023-05-01T10:45:39.856Z,101198.25
2023-05-01T10:48:06.301Z,101184.34
2023-05-01T10:50:34.663Z,101178.38
2023-05-01T10:53:09.975Z,101176.84
2023-05-01T10:55:37.828Z,101179.91
2023-05-01T10:58:04.456Z,101178.69
2023-05-01T11:00:32.459Z,101169.16
2023-05-01T11:03:23.471Z,101175.03
2023-05-01T11:06:03.990Z,101170.19
2023-05-01T11:08:38.291Z,101164.84
2023-05-01T11:11:19.991Z,101164.69
2023-05-01T11:14:05.935Z,101164.31
2023-05-01T11:16:44.190Z,101152.25
2023-05-01T11:19:22.694Z,101144.31
2023-05-01T11:21:50.521Z,101148.91
2023-05-01T11:24:19.666Z,101144.22
2023-05-01T11:26:47.276Z,101132.16
2023-05-01T11:59:46.110Z,101078.22
2023-05-01T12:02:19.866Z,101076.03
2023-05-01T12:04:46.878Z,101075.34
2023-05-01T12:07:23.313Z,101059.25
2023-05-01T12:09:51.323Z,101073.41
2023-05-01T12:12:18.111Z,101068.81
2023-05-01T12:14:44.716Z,101059.84
2023-05-01T12:17:12.274Z,101057.38
2023-05-01T12:19:48.878Z,101054.91
2023-05-01T12:22:15.383Z,101058.91
2023-05-01T12:24:55.207Z,101050.31
2023-05-01T12:27:21.726Z,101049.16
2023-05-01T12:29:48.310Z,101044.19
2023-05-01T12:32:15.549Z,101045.38
2023-05-01T12:34:42.103Z,101048.13
2023-05-01T12:37:09.845Z,101033.50
2023-05-01T12:39:38.657Z,101030.75
2023-05-01T12:42:13.053Z,101035.25
2023-05-01T12:44:39.547Z,101033.59
2023-05-01T12:47:07.924Z,101035.41
2023-05-01T12:49:38.391Z,101029.13
2023-05-01T12:52:07.193Z,101025.06
2023-05-01T12:54:37.754Z,101022.63
2023-05-01T12:57:15.380Z,101016.25
2023-05-01T12:59:44.233Z,101022.94
2023-05-01T13:02:12.779Z,101016.50
2023-05-01T13:04:39.967Z,101018.34
2023-05-01T13:07:15.073Z,101014.06
2023-05-01T13:09:55.282Z,101004.81
2023-05-01T13:12:22.652Z,101008.47
2023-05-01T13:14:50.059Z,100998.72
2023-05-01T13:17:29.375Z,100997.53
2023-05-01T13:19:56.949Z,100993.09
2023-05-01T13:22:33.371Z,100993.22
2023-05-01T13:25:01.355Z,100990.59
2023-05-01T13:27:28.700Z,100990.69
2023-05-01T13:29:58.110Z,100989.91
2023-05-01T13:32:27.865Z,100979.56
2023-05-01T13:34:54.398Z,100977.06
2023-05-01T13:37:21.366Z,100976.38
2023-05-01T13:39:48.244Z,100968.47
2023-05-01T13:42:32.565Z,100974.13
2023-05-01T13:44:58.998Z,100966.78
2023-05-01T13:47:27.444Z,100970.56
2023-05-01T13:49:54.098Z,100964.63
2023-05-01T13:52:20.834Z,100963.06
2023-05-01T13:54:48.462Z,100963.44
2023-05-01T13:57:16.087Z,100961.53
2023-05-01T13:59:44.530Z,100952.41
2023-05-01T14:02:20.287Z,100955.16
2023-05-01T14:04:47.230Z,100950.38
2023-05-01T14:07:23.152Z,100943.44
2023-05-01T14:09:57.599Z,100941.59
2023-05-01T14:12:29.465Z,100948.25
2023-05-01T14:14:56.461Z,100946.44
2023-05-01T14:17:41.244Z,100931.94
2023-05-01T14:20:08.707Z,100931.50
2023-05-01T14:22:46.826Z,100934.28
2023-05-01T14:25:34.752Z,100931.84
2023-05-01T14:28:05.466Z,100929.09
2023-05-01T14:30:33.756Z,100916.78
2023-05-01T14:33:05.060Z,100914.19
2023-05-01T14:35:31.957Z,100916.19
2023-05-01T14:38:07.921Z,100917.88
2023-05-01T14:40:34.656Z,100920.47
2023-05-01T14:43:01.503Z,100912.28
2023-05-01T14:45:28.065Z,100906.19
2023-05-01T14:47:54.563Z,100907.72
2023-05-01T14:50:24.945Z,100905.63
2023-05-01T14:52:59.834Z,100903.25
2023-05-01T14:55:29.281Z,100902.94
2023-05-01T14:57:56.909Z,100903.59
2023-05-01T15:00:24.370Z,100900.38
2023-05-01T15:02:51.125Z,100902.78
2023-05-01T15:05:17.903Z,100901.56
2023-05-01T15:07:44.517Z,100903.50
2023-05-01T15:10:11.064Z,100901.56
2023-05-01T15:12:37.476Z,100907.16
2023-05-01T15:15:04.370Z,100902.28
2023-05-01T15:17:32.452Z,100901.91
2023-05-01T15:19:59.065Z,100900.03
2023-05-01T15:22:25.561Z,100896.22
2023-05-01T15:24:52.077Z,100890.91
2023-05-01T15:27:18.511Z,100895.41
2023-05-01T15:29:44.925Z,100891.72
2023-05-01T15:32:12.756Z,100892.44
2023-05-01T15:34:40.082Z,100894.38
2023-05-01T15:37:06.649Z,100896.84
2023-05-01T15:39:33.422Z,100890.41
2023-05-01T15:42:00.871Z,100887.81
2023-05-01T15:44:28.655Z,100881.88
2023-05-01T15:46:55.275Z,100883.41
2023-05-01T15:49:21.836Z,100883.66
2023-05-01T15:51:48.241Z,100885.56
2023-05-01T15:54:14.643Z,100873.94
2023-05-01T15:56:41.087Z,100878.91
2023-05-01T15:59:08.145Z,100881.19
2023-05-01T16:01:35.499Z,100876.44
2023-05-01T16:04:03.358Z,100871.69
2023-05-01T16:06:31.380Z,100871.19
2023-05-01T16:08:59.277Z,100869.69
2023-05-01T16:11:25.719Z,100866.84
2023-05-01T16:13:54.024Z,100869.22
2023-05-01T16:16:25.590Z,100866.88
2023-05-01T16:18:55.374Z,100869.09
2023-05-01T16:21:22.965Z,100865.06
2023-05-01T16:23:50.955Z,100863.06
2023-05-01T16:26:28.435Z,100872.91
2023-05-01T16:29:02.148Z,100868.28
2023-05-01T16:31:37.582Z,100862.78
2023-05-01T16:34:06.385Z,100864.22
2023-05-01T16:36:36.728Z,100857.25
2023-05-01T16:39:04.068Z,100862.22
2023-05-01T16:41:30.526Z,100873.63
2023-05-01T16:43:59.949Z,100859.72
2023-05-01T16:46:26.494Z,100866.16
2023-05-01T16:48:53.113Z,100863.06
2023-05-01T16:51:19.999Z,100861.13
2023-05-01T16:53:46.463Z,100857.91
2023-05-01T16:56:12.899Z,100859.81
2023-05-01T16:58:39.342Z,100860.03
2023-05-01T17:01:05.884Z,100860.63
2023-05-01T17:03:32.447Z,100867.63
2023-05-01T17:05:59.087Z,100864.53
2023-05-01T17:08:26.011Z,100859.00
2023-05-01T17:10:52.433Z,100868.31
2023-05-01T17:13:19.502Z,100864.09
2023-05-01T17:15:45.917Z,100863.94
2023-05-01T17:18:12.478Z,100865.13
2023-05-01T17:20:38.968Z,100860.97
2023-05-01T17:23:05.493Z,100862.50
2023-05-01T17:25:32.002Z,100862.94
2023-05-01T17:27:59.179Z,100868.84
2023-05-01T17:30:25.617Z,100866.59
2023-05-01T17:32:52.646Z,100867.09
2023-05-01T17:35:19.209Z,100866.47
2023-05-01T17:37:45.793Z,100868.72
2023-05-01T17:40:12.402Z,100874.41
2023-05-01T17:42:39.026Z,100865.38
2023-05-01T17:45:07.447Z,100862.53
2023-05-01T17:47:34.608Z,100868.09
2023-05-01T17:50:04.802Z,100858.13
2023-05-01T17:52:32.037Z,100854.47
2023-05-01T17:54:59.040Z,100854.41
2023-05-01T17:57:25.770Z,100855.56
2023-05-01T17:59:52.583Z,100859.91
2023-05-01T18:02:19.156Z,100854.13
2023-05-01T18:04:49.630Z,100859.22
2023-05-01T18:07:16.370Z,100858.72
2023-05-01T18:09:43.115Z,100858.81
2023-05-01T18:12:10.276Z,100856.50
2023-05-01T18:14:37.121Z,100850.91
2023-05-01T18:17:03.658Z,100855.91
2023-05-01T18:19:34.132Z,100846.94
2023-05-01T18:22:00.963Z,100859.66
2023-05-01T18:24:27.410Z,100856.84
2023-05-01T18:26:53.819Z,100856.84
2023-05-01T18:29:22.641Z,100854.81
2023-05-01T18:31:50.938Z,100856.34
2023-05-01T18:34:19.100Z,100856.22
2023-05-01T18:36:48.449Z,100856.69
2023-05-01T18:39:14.874Z,100853.88
2023-05-01T18:41:41.492Z,100862.19
2023-05-01T18:44:07.894Z,100866.72
2023-05-01T18:46:34.403Z,100874.34
2023-05-01T18:49:01.289Z,100866.00
2023-05-01T18:51:27.749Z,100864.00
2023-05-01T18:53:54.593Z,100877.44
2023-05-01T18:56:21.986Z,100874.09
2023-05-01T18:58:48.438Z,100871.44
2023-05-01T19:01:14.873Z,100872.06
2023-05-01T19:03:41.321Z,100862.09
2023-05-01T19:06:10.335Z,100867.94
2023-05-01T19:08:37.062Z,100866.22
2023-05-01T19:11:04.725Z,100861.84
2023-05-01T19:13:32.310Z,100864.72
2023-05-01T19:15:58.802Z,100871.38
2023-05-01T19:18:25.833Z,100870.69
2023-05-01T19:20:52.239Z,100863.63
2023-05-01T19:23:18.686Z,100866.78
2023-05-01T19:25:45.140Z,100862.94
2023-05-01T19:28:11.561Z,100863.88
2023-05-01T19:30:37.978Z,100871.25
2023-05-01T19:33:04.540Z,100863.13
2023-05-01T19:35:31.008Z,100862.59
2023-05-01T19:37:58.314Z,100866.25
2023-05-01T19:40:24.864Z,100869.03
2023-05-01T19:42:51.530Z,100865.38
2023-05-01T19:45:18.169Z,100864.19
2023-05-01T19:47:45.802Z,100875.13
2023-05-01T19:50:12.400Z,100868.00
2023-05-01T19:52:38.838Z,100860.03
2023-05-01T19:55:05.597Z,100866.13
2023-05-01T19:57:32.154Z,100859.44
2023-05-01T19:59:59.114Z,100865.50
2023-05-01T20:02:25.814Z,100862.44
2023-05-01T20:04:52.373Z,100857.09
2023-05-01T20:07:18.862Z,100851.03
2023-05-01T20:09:45.303Z,100861.56
2023-05-01T20:12:12.066Z,100854.47
2023-05-01T20:14:38.468Z,100863.28
2023-05-01T20:17:07.058Z,100862.34
2023-05-01T20:19:33.770Z,100865.28
2023-05-01T20:22:00.164Z,100860.28
2023-05-01T20:24:26.633Z,100870.91
2023-05-01T20:26:55.571Z,100862.91
2023-05-01T20:29:21.999Z,100863.72
2023-05-01T20:31:49.037Z,100860.28
2023-05-01T20:34:15.556Z,100861.09
2023-05-01T20:36:42.302Z,100862.38
2023-05-01T20:39:08.778Z,100872.50
2023-05-01T20:41:35.181Z,100867.91
2023-05-01T20:44:02.320Z,100868.53
2023-05-01T20:46:29.036Z,100865.41
2023-05-01T20:48:55.962Z,100867.06
2023-05-01T20:51:22.448Z,100866.75
2023-05-01T20:53:48.910Z,100867.25
2023-05-01T20:56:15.359Z,100863.63
2023-05-01T20:58:41.791Z,100871.16
2023-05-01T21:01:08.329Z,100866.66
2023-05-01T21:03:34.878Z,100866.25
2023-05-01T21:06:01.921Z,100869.47
2023-05-01T21:08:28.925Z,100865.19
2023-05-01T21:10:55.634Z,100873.47
2023-05-01T21:13:24.633Z,100866.25
2023-05-01T21:15:52.255Z,100865.44
2023-05-01T21:18:20.350Z,100872.31
2023-05-01T21:20:48.630Z,100873.66
2023-05-01T21:23:16.067Z,100872.63
2023-05-01T21:25:42.764Z,100874.63
2023-05-01T21:28:13.648Z,100872.63
2023-05-01T21:30:40.548Z,100875.94
2023-05-01T21:33:14.328Z,100875.56
2023-05-01T21:35:42.878Z,100878.75
2023-05-01T21:38:09.811Z,100882.53
2023-05-01T21:40:38.124Z,100883.06
2023-05-01T21:43:05.845Z,100880.53
2023-05-01T21:45:34.280Z,100890.34
2023-05-01T21:48:00.781Z,100886.19
2023-05-01T21:50:33.676Z,100884.09
2023-05-01T21:53:00.180Z,100884.41
2023-05-01T21:55:26.591Z,100879.63
2023-05-01T21:57:53.359Z,100885.75
2023-05-01T22:00:20.943Z,100882.94
2023-05-01T22:02:49.631Z,100884.28
2023-05-01T22:05:18.250Z,100889.50
2023-05-01T22:07:46.213Z,100891.88
2023-05-01T22:10:15.590Z,100889.28
2023-05-01T22:12:42.856Z,100891.72
2023-05-01T22:15:10.953Z,100887.41
2023-05-01T22:17:38.484Z,100897.53
2023-05-01T22:20:07.112Z,100894.91
2023-05-01T22:22:34.450Z,100890.88
2023-05-01T22:25:00.886Z,100899.00
2023-05-01T22:27:27.321Z,100896.38
2023-05-01T22:29:53.947Z,100898.38
2023-05-01T22:32:20.749Z,100897.66
2023-05-01T22:34:47.423Z,100899.34
2023-05-01T22:37:13.948Z,100897.34
2023-05-01T22:39:40.346Z,100900.38
2023-05-01T22:42:06.782Z,100896.94
2023-05-01T22:44:33.313Z,100898.91
2023-05-01T22:46:59.710Z,100893.19
2023-05-01T22:49:28.500Z,100891.19
2023-05-01T22:51:55.502Z,100891.72
2023-05-01T22:54:22.121Z,100896.72
2023-05-01T22:56:49.895Z,100899.34
2023-05-01T22:59:16.921Z,100904.75
2023-05-01T23:01:44.537Z,100897.16
2023-05-01T23:04:11.590Z,100896.81
2023-05-01T23:06:38.250Z,100899.44
2023-05-01T23:09:04.685Z,100897.75
2023-05-01T23:11:32.524Z,100900.28
2023-05-01T23:13:59.662Z,100900.81
2023-05-01T23:16:26.419Z,100896.53
2023-05-01T23:18:52.968Z,100893.38
2023-05-01T23:21:19.705Z,100897.66
2023-05-01T23:23:47.028Z,100896.19
2023-05-01T23:26:25.452Z,100894.84
2023-05-01T23:28:53.071Z,100901.09
2023-05-01T23:31:27.497Z,100896.72
2023-05-01T23:33:55.271Z,100893.69
2023-05-01T23:36:22.264Z,100896.50
2023-05-01T23:38:48.712Z,100892.84
2023-05-01T23:41:15.406Z,100896.59
2023-05-01T23:43:42.490Z,100892.22
2023-05-01T23:46:08.901Z,100896.56
2023-05-01T23:48:36.151Z,100891.47
2023-05-01T23:51:03.213Z,100893.75
2023-05-01T23:53:30.458Z,100892.47
2023-05-01T23:55:57.148Z,100906.03
2023-05-01T23:58:23.772Z,100886.94
